Time;durP1;ratioP1;P1;durP2;ratioP2;P2;SDS_P1;SDS_P2;PMS_P1;PMS_P2;Temp;Humidity;BMP_temperature;BMP_pressure;BME280_temperature;BME280_humidity;BME280_pressure;Samples;Min_cycle;Max_cycle;Signal;HPM_P1;HPM_P2
2023/07/02 00:00:05;;;;;;;19.30;7.55;;;17.50;99.90;;;;;;5072239;28;20056;-65
2023/07/02 00:02:30;;;;;;;19.80;7.00;;;15.30;99.90;;;;;;5071388;28;20055;-65
2023/07/02 00:04:56;;;;;;;19.52;7.63;;;15.30;99.90;;;;;;5072363;28;20028;-65
2023/07/02 00:07:22;;;;;;;19.63;7.80;;;15.30;99.90;;;;;;5053978;28;20119;-64
2023/07/02 00:09:48;;;;;;;20.30;7.97;;;15.30;99.90;;;;;;5073174;28;20059;-64
2023/07/02 00:12:14;;;;;;;25.30;7.95;;;15.30;99.90;;;;;;5073531;28;20508;-64
2023/07/02 00:14:40;;;;;;;20.65;7.38;;;15.20;99.90;;;;;;5072718;28;20357;-65
2023/07/02 00:17:06;;;;;;;18.27;7.45;;;15.20;99.90;;;;;;5072080;28;20044;-64
2023/07/02 00:19:32;;;;;;;22.17;7.75;;;15.40;99.90;;;;;;5070915;28;20051;-64
2023/07/02 00:21:58;;;;;;;21.02;7.35;;;15.30;99.90;;;;;;5072361;28;20044;-65
2023/07/02 00:24:23;;;;;;;19.40;7.10;;;15.30;99.90;;;;;;5072549;28;20461;-64
2023/07/02 00:26:49;;;;;;;17.45;7.15;;;15.30;99.90;;;;;;5071820;28;20040;-65
2023/07/02 00:29:15;;;;;;;20.60;7.68;;;15.10;99.90;;;;;;5071417;28;20131;-64
2023/07/02 00:31:41;;;;;;;21.38;7.93;;;15.40;99.90;;;;;;5071154;28;20047;-64
2023/07/02 00:34:06;;;;;;;23.90;7.72;;;15.30;99.90;;;;;;5071877;28;20040;-64
2023/07/02 00:36:32;;;;;;;22.08;7.40;;;15.10;99.90;;;;;;5071637;28;20117;-64
2023/07/02 00:38:58;;;;;;;26.65;8.00;;;15.10;99.90;;;;;;5071406;28;20035;-64
2023/07/02 00:41:25;;;;;;;21.42;7.47;;;15.10;99.90;;;;;;5072414;28;20470;-64
2023/07/02 00:43:54;;;;;;;17.40;7.53;;;15.20;99.90;;;;;;5071451;28;20093;-64
2023/07/02 00:46:21;;;;;;;28.70;8.10;;;15.10;99.90;;;;;;5071082;28;20055;-65
2023/07/02 00:48:51;;;;;;;22.95;8.10;;;15.00;99.90;;;;;;5071386;28;20055;-64
2023/07/02 00:51:19;;;;;;;21.92;7.78;;;15.10;99.90;;;;;;5071033;28;20044;-64
2023/07/02 00:53:47;;;;;;;24.67;8.93;;;15.00;99.90;;;;;;5072321;28;20338;-64
2023/07/02 00:56:13;;;;;;;23.50;7.95;;;15.10;99.90;;;;;;5072831;28;20049;-65
2023/07/02 00:58:46;;;;;;;22.52;8.38;;;15.20;99.90;;;;;;5070800;28;20052;-64
2023/07/02 01:01:14;;;;;;;28.90;9.25;;;14.90;99.90;;;;;;5052787;28;20055;-64
2023/07/02 01:03:52;;;;;;;21.83;7.30;;;14.90;99.90;;;;;;5070819;28;20039;-64
2023/07/02 01:06:20;;;;;;;27.35;8.18;;;14.90;99.90;;;;;;5053589;28;20036;-64
2023/07/02 01:08:46;;;;;;;19.88;8.32;;;14.90;99.90;;;;;;5070456;28;20048;-65
2023/07/02 01:11:12;;;;;;;25.40;8.90;;;14.80;99.90;;;;;;5070673;28;20123;-64
2023/07/02 01:13:38;;;;;;;22.17;7.68;;;14.90;99.90;;;;;;5054505;28;20499;-65
2023/07/02 01:16:04;;;;;;;25.75;8.38;;;14.80;99.90;;;;;;5075425;28;20576;-65
2023/07/02 01:18:30;;;;;;;20.17;8.50;;;14.70;99.90;;;;;;5074812;28;20385;-64
2023/07/02 01:20:57;;;;;;;26.15;9.05;;;14.70;99.90;;;;;;5075813;28;20076;-64
2023/07/02 01:23:23;;;;;;;30.40;10.07;;;14.70;99.90;;;;;;5076490;28;20044;-65
2023/07/02 01:25:51;;;;;;;31.33;9.20;;;14.70;99.90;;;;;;5058791;28;20094;-64
2023/07/02 01:28:17;;;;;;;32.33;8.65;;;14.60;99.90;;;;;;5075197;28;20131;-64
2023/07/02 01:30:43;;;;;;;28.10;8.02;;;14.60;99.90;;;;;;5075985;28;20126;-64
2023/07/02 01:33:09;;;;;;;29.48;8.68;;;14.70;99.90;;;;;;5075898;28;20051;-65
2023/07/02 01:35:34;;;;;;;24.95;8.40;;;14.50;99.90;;;;;;5075061;28;20088;-64
2023/07/02 01:38:00;;;;;;;27.92;9.52;;;14.60;99.90;;;;;;5075341;28;20511;-64
2023/07/02 01:40:26;;;;;;;29.23;9.07;;;14.50;99.90;;;;;;5076018;28;20051;-64
2023/07/02 01:42:51;;;;;;;27.73;9.25;;;14.50;99.90;;;;;;5056886;28;20036;-64
2023/07/02 01:45:17;;;;;;;32.80;9.10;;;14.30;99.90;;;;;;5073927;28;20424;-62
2023/07/02 01:47:43;;;;;;;26.50;8.43;;;14.50;99.90;;;;;;5074756;28;20044;-64
2023/07/02 01:50:09;;;;;;;22.90;8.45;;;14.40;99.90;;;;;;5075226;28;20404;-64
2023/07/02 01:52:35;;;;;;;27.15;9.45;;;14.20;99.90;;;;;;5074810;28;20573;-64
2023/07/02 01:55:01;;;;;;;26.85;8.85;;;14.30;99.90;;;;;;5075340;28;20278;-64
2023/07/02 01:57:27;;;;;;;32.35;9.32;;;14.50;99.90;;;;;;5076779;28;20355;-64
2023/07/02 01:59:53;;;;;;;26.17;8.18;;;14.30;99.90;;;;;;5074624;28;20048;-63
2023/07/02 02:02:19;;;;;;;26.80;9.32;;;14.40;99.90;;;;;;5073951;28;20637;-64
2023/07/02 02:04:45;;;;;;;22.00;8.45;;;14.30;99.90;;;;;;5074413;28;20193;-63
2023/07/02 02:07:11;;;;;;;34.83;9.60;;;14.30;99.90;;;;;;5075040;28;20126;-64
2023/07/02 02:09:36;;;;;;;29.55;9.43;;;14.20;99.90;;;;;;5074680;28;20051;-64
2023/07/02 02:12:02;;;;;;;29.25;9.20;;;14.30;99.90;;;;;;5075079;28;20521;-63
2023/07/02 02:14:28;;;;;;;27.30;8.80;;;14.40;99.90;;;;;;5074981;28;20044;-65
2023/07/02 02:16:54;;;;;;;29.02;8.82;;;14.20;99.90;;;;;;5074075;28;20044;-63
2023/07/02 02:19:19;;;;;;;26.23;9.00;;;14.40;99.90;;;;;;5073811;28;20116;-64
2023/07/02 02:21:45;;;;;;;26.00;9.20;;;14.20;99.90;;;;;;5074179;28;20101;-64
2023/07/02 02:24:11;;;;;;;29.70;8.70;;;14.10;99.90;;;;;;5074077;28;20055;-63
2023/07/02 02:26:36;;;;;;;28.55;8.73;;;14.20;99.90;;;;;;5074456;28;20032;-62
2023/07/02 02:29:02;;;;;;;29.73;9.13;;;14.20;99.90;;;;;;5074163;28;20051;-62
2023/07/02 02:31:28;;;;;;;26.20;8.52;;;14.00;99.90;;;;;;5075074;28;20085;-64
2023/07/02 02:33:54;;;;;;;27.08;8.88;;;14.00;99.90;;;;;;5074052;28;20720;-63
2023/07/02 02:36:20;;;;;;;27.52;9.52;;;14.10;99.90;;;;;;5074653;28;20052;-64
2023/07/02 02:38:46;;;;;;;29.52;8.80;;;14.00;99.90;;;;;;5076437;28;20044;-63
2023/07/02 02:41:12;;;;;;;27.83;8.80;;;14.00;99.90;;;;;;5074824;28;20048;-64
2023/07/02 02:43:42;;;;;;;25.50;9.48;;;14.10;99.90;;;;;;5074842;28;20044;-63
2023/07/02 02:46:09;;;;;;;24.33;9.43;;;13.60;99.90;;;;;;5055995;28;20649;-64
2023/07/02 02:48:34;;;;;;;26.35;10.00;;;13.80;99.90;;;;;;5074593;28;20052;-64
2023/07/02 02:51:00;;;;;;;28.38;9.85;;;13.60;99.90;;;;;;5074701;28;20040;-63
2023/07/02 02:53:26;;;;;;;39.80;10.23;;;13.60;99.90;;;;;;5073828;28;20527;-64
2023/07/02 02:55:52;;;;;;;34.95;9.50;;;13.60;99.90;;;;;;5056980;28;20115;-64
2023/07/02 02:58:17;;;;;;;25.98;9.23;;;13.80;99.90;;;;;;5056485;28;20284;-64
2023/07/02 03:00:45;;;;;;;32.80;9.07;;;13.60;99.90;;;;;;5073678;28;20128;-63
2023/07/02 03:03:13;;;;;;;30.75;9.25;;;13.20;99.90;;;;;;5073717;28;20473;-64
2023/07/02 03:05:38;;;;;;;28.92;10.00;;;13.70;99.90;;;;;;5073763;28;20044;-64
2023/07/02 03:08:05;;;;;;;33.40;10.32;;;13.30;99.90;;;;;;5073181;28;20552;-64
2023/07/02 03:10:31;;;;;;;28.35;10.05;;;13.40;99.90;;;;;;5072241;28;20477;-64
2023/07/02 03:12:56;;;;;;;32.13;10.27;;;13.40;99.90;;;;;;5074130;28;20040;-64
2023/07/02 03:15:22;;;;;;;27.85;8.60;;;13.10;99.90;;;;;;5072371;28;20044;-64
2023/07/02 03:17:48;;;;;;;27.73;8.85;;;13.30;99.90;;;;;;5073494;28;20059;-64
2023/07/02 03:20:13;;;;;;;26.95;8.68;;;13.30;99.90;;;;;;5054495;28;20048;-63
2023/07/02 03:22:39;;;;;;;24.52;8.65;;;13.20;99.90;;;;;;5073463;28;20055;-63
2023/07/02 03:25:05;;;;;;;30.33;9.23;;;13.20;99.90;;;;;;5073200;28;20044;-64
2023/07/02 03:27:31;;;;;;;27.13;9.30;;;13.20;99.90;;;;;;5073651;28;20044;-62
2023/07/02 03:29:58;;;;;;;25.60;8.60;;;13.30;99.90;;;;;;5054962;28;20105;-64
2023/07/02 03:32:24;;;;;;;27.52;9.65;;;13.50;99.90;;;;;;5072486;28;20548;-63
2023/07/02 03:34:49;;;;;;;25.65;8.55;;;13.60;99.90;;;;;;5071696;28;20093;-63
2023/07/02 03:37:15;;;;;;;30.60;9.18;;;13.50;99.90;;;;;;5073394;28;20051;-63
2023/07/02 03:39:41;;;;;;;25.27;9.48;;;13.60;99.90;;;;;;5073108;28;20469;-63
2023/07/02 03:42:06;;;;;;;25.95;8.77;;;13.70;99.90;;;;;;5072650;28;20532;-64
2023/07/02 03:44:32;;;;;;;27.80;8.23;;;13.80;99.90;;;;;;5071777;28;20169;-63
2023/07/02 03:46:58;;;;;;;30.45;9.23;;;13.60;99.90;;;;;;5073212;28;20523;-64
2023/07/02 03:49:24;;;;;;;30.83;9.02;;;13.60;99.90;;;;;;5071576;28;20042;-63
2023/07/02 03:51:50;;;;;;;24.88;8.82;;;13.70;99.90;;;;;;5072445;28;20359;-63
2023/07/02 03:54:16;;;;;;;36.22;9.65;;;13.60;99.90;;;;;;5073430;28;20044;-64
2023/07/02 03:56:42;;;;;;;25.23;8.55;;;13.70;99.90;;;;;;5055387;28;20108;-64
2023/07/02 03:59:07;;;;;;;25.52;8.40;;;13.60;99.90;;;;;;5072489;28;20460;-64
2023/07/02 04:01:33;;;;;;;23.65;8.82;;;13.60;99.90;;;;;;5072497;28;21157;-62
2023/07/02 04:03:59;;;;;;;30.45;9.82;;;13.60;99.90;;;;;;5073077;28;20535;-64
2023/07/02 04:06:24;;;;;;;23.33;8.32;;;13.70;99.90;;;;;;5072092;28;20044;-63
2023/07/02 04:08:50;;;;;;;24.73;8.90;;;13.80;99.90;;;;;;5071910;28;20459;-63
2023/07/02 04:11:16;;;;;;;26.27;8.20;;;13.80;99.90;;;;;;5073448;28;20514;-64
2023/07/02 04:13:42;;;;;;;23.88;9.20;;;13.90;99.90;;;;;;5071861;28;20047;-63
2023/07/02 04:16:08;;;;;;;26.25;8.90;;;13.80;99.90;;;;;;5072090;28;20521;-64
2023/07/02 04:18:33;;;;;;;22.85;8.32;;;14.00;99.90;;;;;;5071445;28;20745;-63
2023/07/02 04:21:01;;;;;;;25.27;7.53;;;13.90;99.90;;;;;;5072882;28;20059;-62
2023/07/02 04:23:27;;;;;;;25.17;8.90;;;14.00;99.90;;;;;;5071114;28;20066;-63
2023/07/02 04:25:53;;;;;;;26.67;8.32;;;14.00;99.90;;;;;;5072530;28;20036;-63
2023/07/02 04:28:19;;;;;;;23.83;7.82;;;13.90;99.90;;;;;;5072168;28;20036;-63
2023/07/02 04:30:45;;;;;;;26.35;8.63;;;13.90;99.90;;;;;;5071636;28;20040;-62
2023/07/02 04:33:14;;;;;;;25.20;8.48;;;14.00;99.90;;;;;;5070378;28;20048;-63
2023/07/02 04:35:39;;;;;;;31.98;8.95;;;14.00;99.90;;;;;;5071708;28;20655;-62
2023/07/02 04:38:06;;;;;;;30.35;8.55;;;14.10;99.90;;;;;;5072306;28;20327;-63
2023/07/02 04:40:32;;;;;;;30.05;7.75;;;14.10;99.90;;;;;;5052549;28;20043;-62
2023/07/02 04:42:58;;;;;;;29.98;8.52;;;14.30;99.90;;;;;;5071214;28;20032;-63
2023/07/02 04:45:25;;;;;;;23.80;7.65;;;14.30;99.90;;;;;;5072143;28;20070;-63
2023/07/02 04:47:51;;;;;;;23.83;8.18;;;14.50;99.90;;;;;;5052462;28;20132;-63
2023/07/02 04:50:18;;;;;;;21.38;6.95;;;14.20;99.90;;;;;;5052392;28;20074;-63
2023/07/02 04:52:44;;;;;;;23.67;7.25;;;14.30;99.90;;;;;;5070838;28;20068;-63
2023/07/02 04:55:10;;;;;;;19.58;6.10;;;14.40;99.90;;;;;;5071646;28;20163;-63
2023/07/02 04:57:36;;;;;;;20.15;6.97;;;14.50;99.90;;;;;;5054509;28;21187;-64
2023/07/02 05:00:06;;;;;;;23.25;7.10;;;14.90;99.90;;;;;;5071566;28;20044;-63
2023/07/02 05:02:32;;;;;;;19.80;7.00;;;14.90;99.90;;;;;;5051903;28;20136;-63
2023/07/02 05:04:58;;;;;;;21.55;6.00;;;14.80;99.90;;;;;;5070825;28;20036;-62
2023/07/02 05:07:23;;;;;;;24.88;7.40;;;14.80;99.90;;;;;;5071189;28;20075;-63
2023/07/02 05:09:51;;;;;;;20.35;6.38;;;15.00;99.90;;;;;;5071347;28;20386;-63
2023/07/02 05:12:17;;;;;;;24.17;5.90;;;15.00;99.90;;;;;;5071279;28;20047;-63
2023/07/02 05:14:43;;;;;;;18.40;5.57;;;15.10;99.90;;;;;;5072303;28;20451;-64
2023/07/02 05:17:09;;;;;;;20.38;6.25;;;14.70;99.90;;;;;;5053411;28;20073;-64
2023/07/02 05:19:35;;;;;;;19.92;5.95;;;15.00;99.90;;;;;;5070829;28;20203;-62
2023/07/02 05:22:00;;;;;;;16.63;5.57;;;15.50;99.90;;;;;;5054371;28;20103;-63
2023/07/02 05:24:26;;;;;;;17.38;5.95;;;14.90;99.90;;;;;;5070239;28;20500;-63
2023/07/02 05:26:52;;;;;;;22.05;5.65;;;15.00;99.90;;;;;;5071672;28;20065;-64
2023/07/02 05:29:18;;;;;;;18.90;6.35;;;15.20;99.90;;;;;;5071706;28;20119;-63
2023/07/02 05:31:44;;;;;;;21.63;6.28;;;15.20;99.90;;;;;;5072114;28;20040;-65
2023/07/02 05:34:10;;;;;;;18.58;6.18;;;15.30;99.90;;;;;;5070645;28;20072;-64
2023/07/02 05:36:36;;;;;;;20.02;5.85;;;15.40;99.90;;;;;;5070324;28;20036;-63
2023/07/02 05:39:01;;;;;;;19.55;5.68;;;15.20;99.90;;;;;;5071232;28;20048;-63
2023/07/02 05:41:30;;;;;;;24.60;6.63;;;15.20;99.90;;;;;;5034856;28;20500;-63
2023/07/02 05:43:59;;;;;;;20.95;5.50;;;15.40;99.90;;;;;;5070272;28;20572;-63
2023/07/02 05:46:25;;;;;;;21.35;6.68;;;15.10;99.90;;;;;;5018852;28;20561;-64
2023/07/02 05:48:51;;;;;;;18.58;5.70;;;15.10;99.90;;;;;;5071008;28;20037;-64
2023/07/02 05:51:21;;;;;;;16.38;6.28;;;15.10;99.90;;;;;;5069728;28;20048;-64
2023/07/02 05:53:47;;;;;;;18.00;5.97;;;14.90;99.90;;;;;;5070170;28;20146;-63
2023/07/02 05:56:13;;;;;;;17.60;6.03;;;15.40;99.90;;;;;;5070393;28;20131;-64
2023/07/02 05:58:39;;;;;;;18.55;6.35;;;15.20;99.90;;;;;;5071890;28;20052;-63
2023/07/02 06:01:05;;;;;;;17.60;5.93;;;15.20;99.90;;;;;;5072595;28;20117;-64
2023/07/02 06:03:32;;;;;;;16.35;5.80;;;15.10;99.90;;;;;;5073370;28;20044;-63
2023/07/02 06:05:58;;;;;;;16.80;5.72;;;15.30;99.90;;;;;;5073961;28;20114;-63
2023/07/02 06:08:24;;;;;;;21.30;6.97;;;15.30;99.90;;;;;;5074656;28;20050;-63
2023/07/02 06:10:50;;;;;;;18.73;5.55;;;15.40;99.90;;;;;;5073571;28;20043;-64
2023/07/02 06:13:16;;;;;;;19.33;7.15;;;15.60;99.90;;;;;;5073937;28;20044;-63
2023/07/02 06:15:42;;;;;;;15.90;5.45;;;15.60;99.90;;;;;;5074658;28;20119;-64
2023/07/02 06:18:08;;;;;;;21.95;6.38;;;16.00;99.90;;;;;;5073197;28;20051;-64
2023/07/02 06:20:33;;;;;;;18.45;6.00;;;16.20;99.90;;;;;;5074180;28;20028;-64
2023/07/02 06:22:59;;;;;;;20.63;6.43;;;16.50;99.90;;;;;;5056588;28;20374;-64
2023/07/02 06:25:26;;;;;;;17.88;5.78;;;16.70;99.90;;;;;;5075317;28;20073;-63
2023/07/02 06:27:54;;;;;;;17.85;5.95;;;16.70;99.90;;;;;;5074931;28;20096;-63
2023/07/02 06:30:21;;;;;;;18.77;5.55;;;16.70;99.90;;;;;;5075784;28;20190;-64
2023/07/02 06:32:46;;;;;;;16.20;5.20;;;16.60;99.90;;;;;;5075237;28;20047;-63
2023/07/02 06:35:12;;;;;;;19.00;5.05;;;16.90;99.90;;;;;;5076404;28;20454;-64
2023/07/02 06:37:38;;;;;;;17.45;5.10;;;17.20;99.90;;;;;;5075196;28;20036;-64
2023/07/02 06:40:05;;;;;;;11.45;3.65;;;17.20;99.90;;;;;;5056625;28;20052;-64
2023/07/02 06:42:31;;;;;;;15.75;4.68;;;17.30;99.90;;;;;;5074469;28;20373;-62
2023/07/02 06:44:56;;;;;;;13.40;4.40;;;17.20;99.90;;;;;;5075231;28;20036;-64
2023/07/02 06:47:22;;;;;;;12.55;4.75;;;16.60;99.90;;;;;;5056533;28;20452;-64
2023/07/02 06:49:48;;;;;;;21.05;4.22;;;17.70;99.90;;;;;;5072908;28;20549;-64
2023/07/02 06:52:13;;;;;;;14.65;4.47;;;17.70;99.90;;;;;;5074058;28;20079;-63
2023/07/02 06:54:40;;;;;;;12.65;3.83;;;17.40;99.90;;;;;;5074462;28;20078;-63
2023/07/02 06:57:05;;;;;;;12.07;3.58;;;17.30;99.90;;;;;;5074493;28;20122;-63
2023/07/02 06:59:31;;;;;;;16.60;4.50;;;17.30;99.90;;;;;;5073038;28;20044;-64
2023/07/02 07:01:57;;;;;;;9.48;3.30;;;17.60;99.90;;;;;;5074190;28;20044;-64
2023/07/02 07:04:23;;;;;;;12.52;3.83;;;18.10;99.90;;;;;;5073825;28;20039;-64
2023/07/02 07:06:48;;;;;;;18.08;4.90;;;18.30;99.90;;;;;;5075015;28;20043;-64
2023/07/02 07:09:14;;;;;;;15.93;3.75;;;18.90;99.90;;;;;;5073883;28;20044;-64
2023/07/02 07:11:40;;;;;;;12.48;3.58;;;19.10;99.90;;;;;;5054829;28;20040;-63
2023/07/02 07:14:05;;;;;;;18.40;6.07;;;19.10;99.90;;;;;;5073737;28;20481;-64
2023/07/02 07:16:31;;;;;;;12.10;3.75;;;19.30;99.90;;;;;;5073155;28;20040;-64
2023/07/02 07:18:57;;;;;;;14.30;3.55;;;20.20;99.90;;;;;;5072610;28;20739;-65
2023/07/02 07:21:22;;;;;;;10.90;3.10;;;21.20;99.90;;;;;;5073478;28;20040;-64
2023/07/02 07:23:48;;;;;;;15.35;4.13;;;21.90;99.90;;;;;;5074105;28;20063;-65
2023/07/02 07:26:14;;;;;;;11.55;3.17;;;22.40;99.90;;;;;;5073198;28;20052;-65
2023/07/02 07:28:40;;;;;;;13.55;4.40;;;22.90;99.90;;;;;;5074825;28;20311;-64
2023/07/02 07:31:06;;;;;;;12.55;3.55;;;23.60;99.90;;;;;;5075449;28;20127;-65
2023/07/02 07:33:31;;;;;;;15.23;3.60;;;23.90;99.90;;;;;;5073682;28;20048;-65
2023/07/02 07:35:57;;;;;;;16.52;4.30;;;24.50;99.90;;;;;;5074340;28;20043;-65
2023/07/02 07:38:23;;;;;;;13.40;3.47;;;24.60;99.90;;;;;;5073975;28;20093;-65
2023/07/02 07:40:48;;;;;;;10.70;3.67;;;25.10;99.90;;;;;;5074811;28;20113;-66
2023/07/02 07:43:14;;;;;;;13.65;3.67;;;25.30;99.90;;;;;;5073845;28;20497;-65
2023/07/02 07:45:40;;;;;;;11.75;3.40;;;25.00;99.90;;;;;;5073903;28;20125;-65
2023/07/02 07:48:06;;;;;;;11.65;4.00;;;25.10;99.90;;;;;;5073209;28;20568;-65
2023/07/02 07:50:31;;;;;;;8.40;3.13;;;24.70;99.90;;;;;;5074341;28;20142;-65
2023/07/02 07:52:58;;;;;;;8.98;3.38;;;24.90;99.90;;;;;;5055985;28;20159;-65
2023/07/02 07:55:24;;;;;;;9.55;3.00;;;24.30;99.90;;;;;;5038467;28;20073;-65
2023/07/02 07:57:51;;;;;;;11.60;3.35;;;24.10;99.90;;;;;;5074322;28;20470;-66
2023/07/02 08:00:18;;;;;;;13.25;3.28;;;24.00;99.90;;;;;;5074673;28;20201;-66
2023/07/02 08:02:45;;;;;;;11.30;3.85;;;23.10;99.90;;;;;;5073098;28;20409;-65
2023/07/02 08:05:11;;;;;;;13.70;4.03;;;21.60;99.90;;;;;;5072393;28;20512;-65
2023/07/02 08:07:36;;;;;;;9.52;3.50;;;21.00;99.90;;;;;;5072298;28;20040;-65
2023/07/02 08:10:02;;;;;;;9.45;3.33;;;20.30;99.90;;;;;;5073168;28;20063;-65
2023/07/02 08:12:29;;;;;;;13.77;3.88;;;19.70;99.90;;;;;;5073020;28;20070;-65
2023/07/02 08:14:55;;;;;;;12.30;4.07;;;19.40;99.90;;;;;;5072457;28;20040;-65
2023/07/02 08:17:21;;;;;;;17.83;3.88;;;19.10;99.90;;;;;;5071686;28;20044;-65
2023/07/02 08:19:47;;;;;;;14.10;4.30;;;19.00;99.90;;;;;;5072843;28;20353;-65
2023/07/02 08:22:13;;;;;;;16.40;4.43;;;18.90;99.90;;;;;;5071687;28;20047;-65
2023/07/02 08:24:39;;;;;;;20.00;5.93;;;18.50;99.90;;;;;;5072362;28;20044;-64
2023/07/02 08:27:05;;;;;;;12.75;3.90;;;18.30;99.90;;;;;;5072842;28;20040;-64
2023/07/02 08:29:31;;;;;;;16.48;4.25;;;18.30;99.90;;;;;;5073677;28;20119;-65
2023/07/02 08:31:57;;;;;;;13.80;3.97;;;18.30;99.90;;;;;;5054269;28;20040;-65
2023/07/02 08:34:23;;;;;;;13.60;4.05;;;18.60;99.90;;;;;;5071553;28;20055;-65
2023/07/02 08:36:49;;;;;;;12.85;4.30;;;18.90;99.90;;;;;;5072666;28;20616;-63
2023/07/02 08:39:15;;;;;;;15.45;4.40;;;18.80;99.90;;;;;;5072973;28;20046;-64
2023/07/02 08:41:45;;;;;;;12.45;4.50;;;18.30;99.90;;;;;;5071891;28;20524;-65
2023/07/02 08:44:12;;;;;;;14.75;4.50;;;18.00;99.90;;;;;;5071231;28;20097;-65
2023/07/02 08:46:42;;;;;;;19.65;4.63;;;18.10;99.90;;;;;;5072554;28;20051;-64
2023/07/02 08:49:08;;;;;;;14.85;4.75;;;18.40;99.90;;;;;;5071894;28;20052;-65
2023/07/02 08:51:35;;;;;;;16.55;4.10;;;17.90;99.90;;;;;;5073094;28;20055;-64
2023/07/02 08:54:04;;;;;;;12.48;4.03;;;18.90;99.90;;;;;;5073998;28;20036;-65
2023/07/02 08:56:30;;;;;;;13.60;3.70;;;19.60;99.90;;;;;;5073224;28;20369;-65
2023/07/02 08:58:56;;;;;;;12.95;3.25;;;19.50;99.90;;;;;;5073659;28;20452;-65
2023/07/02 09:01:21;;;;;;;16.90;3.50;;;19.40;99.90;;;;;;5054584;28;20451;-65
2023/07/02 09:03:48;;;;;;;13.93;4.18;;;19.00;99.90;;;;;;5072795;28;20039;-65
2023/07/02 09:06:18;;;;;;;11.95;3.58;;;18.70;99.90;;;;;;5073025;28;20036;-65
2023/07/02 09:08:44;;;;;;;10.35;3.40;;;18.40;99.90;;;;;;5072431;28;20036;-65
2023/07/02 09:11:18;;;;;;;10.95;3.45;;;18.70;99.90;;;;;;5071812;28;20125;-65
2023/07/02 09:13:48;;;;;;;12.77;3.42;;;19.20;99.90;;;;;;5073074;28;20036;-64
2023/07/02 09:16:31;;;;;;;11.70;3.42;;;19.70;99.90;;;;;;5054110;28;20219;-65
2023/07/02 09:19:04;;;;;;;11.50;2.90;;;19.90;99.90;;;;;;5071518;28;20036;-65
2023/07/02 09:21:47;;;;;;;10.15;3.10;;;20.50;99.90;;;;;;5071690;28;20032;-64
2023/07/02 09:24:21;;;;;;;12.90;2.63;;;20.40;99.90;;;;;;5071158;28;20112;-64
2023/07/02 09:26:53;;;;;;;18.45;3.33;;;20.40;99.90;;;;;;5071661;28;20125;-65
2023/07/02 09:29:21;;;;;;;;;;;20.20;99.90;;;;;;5072451;28;20627;-65
2023/07/02 09:31:48;;;;;;;10.68;3.03;;;20.00;99.90;;;;;;5070736;28;19936;-66
2023/07/02 09:34:14;;;;;;;12.18;2.65;;;20.20;99.90;;;;;;5071339;28;20139;-65
2023/07/02 09:36:41;;;;;;;11.98;2.78;;;20.20;99.90;;;;;;5055809;28;20135;-66
2023/07/02 09:39:14;;;;;;;10.02;3.53;;;20.20;99.90;;;;;;5075141;28;20522;-65
2023/07/02 09:41:42;;;;;;;15.48;3.75;;;19.90;99.90;;;;;;5075244;28;20051;-65
2023/07/02 09:44:12;;;;;;;12.80;3.50;;;19.70;99.90;;;;;;5075131;28;20298;-64
2023/07/02 09:46:45;;;;;;;8.50;2.92;;;19.50;99.90;;;;;;5075335;28;20060;-64
2023/07/02 09:49:15;;;;;;;10.13;2.70;;;19.50;99.90;;;;;;5074151;28;20453;-64
2023/07/02 09:51:43;;;;;;;12.23;3.22;;;19.50;99.90;;;;;;5075513;28;20417;-65
2023/07/02 09:54:10;;;;;;;8.73;3.05;;;19.20;99.90;;;;;;5074632;28;20101;-65
2023/07/02 09:56:36;;;;;;;9.75;3.15;;;18.90;99.90;;;;;;5057812;28;20028;-63
2023/07/02 09:59:01;;;;;;;14.80;3.42;;;19.00;99.90;;;;;;5075807;28;20071;-64
2023/07/02 10:01:27;;;;;;;12.38;2.83;;;19.40;99.90;;;;;;5074623;28;20131;-64
2023/07/02 10:03:53;;;;;;;13.07;3.28;;;19.50;99.90;;;;;;5073715;28;20052;-64
2023/07/02 10:06:19;;;;;;;15.52;3.50;;;20.20;99.90;;;;;;5076201;28;20485;-56
2023/07/02 10:09:11;;;;;;;15.30;3.78;;;20.50;99.90;;;;;;5076302;28;20170;-56
2023/07/02 10:11:37;;;;;;;10.55;3.10;;;20.70;99.90;;;;;;5070871;28;20044;-57
2023/07/02 10:14:02;;;;;;;11.07;2.90;;;20.80;99.90;;;;;;5055842;28;20125;-56
2023/07/02 10:16:31;;;;;;;8.80;2.78;;;20.60;99.90;;;;;;5056704;28;20118;-57
2023/07/02 10:19:09;;;;;;;12.48;3.20;;;20.10;99.90;;;;;;5075567;28;20058;-56
2023/07/02 10:21:35;;;;;;;14.15;4.47;;;19.60;99.90;;;;;;5074950;28;20134;-56
2023/07/02 10:24:17;;;;;;;14.43;3.58;;;19.40;99.90;;;;;;5056979;28;20142;-57
2023/07/02 10:26:55;;;;;;;11.43;3.25;;;19.30;99.90;;;;;;5075786;28;20484;-57
2023/07/02 10:29:26;;;;;;;13.40;3.72;;;19.10;99.90;;;;;;5076254;28;20059;-56
2023/07/02 10:31:56;;;;;;;13.20;3.87;;;19.00;99.90;;;;;;5075096;28;20040;-56
2023/07/02 10:34:48;;;;;;;14.27;4.05;;;19.00;99.90;;;;;;5074985;28;21868;-57
2023/07/02 10:37:14;;;;;;;13.50;4.10;;;19.10;99.90;;;;;;5070904;28;20123;-56
2023/07/02 10:39:40;;;;;;;18.40;3.50;;;19.30;99.90;;;;;;5076698;28;20040;-57
2023/07/02 10:42:06;;;;;;;12.15;3.15;;;19.40;99.90;;;;;;5075769;28;20043;-56
2023/07/02 10:44:32;;;;;;;10.70;3.05;;;20.20;99.90;;;;;;5074704;28;20052;-56
2023/07/02 10:46:58;;;;;;;10.98;2.75;;;20.30;99.90;;;;;;5073522;28;20570;-56
2023/07/02 10:49:30;;;;;;;11.88;3.35;;;20.50;99.90;;;;;;5074658;28;20372;-56
2023/07/02 10:52:00;;;;;;;12.48;3.05;;;20.10;99.90;;;;;;5074407;28;20074;-57
2023/07/02 10:54:26;;;;;;;9.95;3.05;;;19.90;99.90;;;;;;5074512;28;20502;-56
2023/07/02 10:56:57;;;;;;;19.65;3.28;;;19.80;99.90;;;;;;5074430;28;20563;-57
2023/07/02 10:59:24;;;;;;;10.50;2.85;;;19.70;99.90;;;;;;5075484;28;20732;-57
2023/07/02 11:01:50;;;;;;;14.05;3.67;;;19.80;99.90;;;;;;5074759;28;20144;-56
2023/07/02 11:04:16;;;;;;;12.48;3.20;;;19.60;99.90;;;;;;5073699;28;20131;-56
2023/07/02 11:06:43;;;;;;;9.68;3.10;;;19.70;99.90;;;;;;5074527;28;20040;-58
2023/07/02 11:09:20;;;;;;;9.70;2.95;;;19.30;99.90;;;;;;5074346;28;20047;-56
2023/07/02 11:12:00;;;;;;;10.38;3.47;;;19.40;99.90;;;;;;5074852;28;20346;-56
2023/07/02 11:14:30;;;;;;;12.15;2.75;;;19.10;99.90;;;;;;5073749;28;20355;-56
2023/07/02 11:16:57;;;;;;;10.40;2.60;;;19.30;99.90;;;;;;5073122;28;20044;-56
2023/07/02 11:19:24;;;;;;;10.20;2.47;;;19.40;99.90;;;;;;5073120;28;20044;-56
2023/07/02 11:21:56;;;;;;;10.23;2.67;;;19.30;99.90;;;;;;5074088;28;20410;-56
2023/07/02 11:24:34;;;;;;;11.93;3.25;;;19.10;99.90;;;;;;5074099;28;20142;-56
2023/07/02 11:27:01;;;;;;;13.35;2.75;;;19.30;99.90;;;;;;5073013;28;20204;-56
2023/07/02 11:29:29;;;;;;;14.13;3.70;;;19.70;99.90;;;;;;5074210;28;20401;-56
2023/07/02 11:32:14;;;;;;;10.50;3.30;;;19.80;99.90;;;;;;5074148;28;20072;-57
2023/07/02 11:34:40;;;;;;;10.88;2.80;;;20.10;99.90;;;;;;5072715;28;20504;-56
2023/07/02 11:37:06;;;;;;;10.00;2.63;;;20.50;99.90;;;;;;5072803;28;20578;-56
2023/07/02 11:39:32;;;;;;;12.73;2.28;;;20.60;99.90;;;;;;5054014;28;20067;-57
2023/07/02 11:41:58;;;;;;;9.00;2.60;;;20.50;99.90;;;;;;5073765;28;20131;-56
2023/07/02 11:44:24;;;;;;;8.52;2.45;;;20.60;99.90;;;;;;5073124;28;20102;-56
2023/07/02 11:46:50;;;;;;;10.30;2.80;;;20.70;99.90;;;;;;5072682;28;20270;-57
2023/07/02 11:49:15;;;;;;;8.63;2.33;;;20.80;99.90;;;;;;5072327;28;20101;-57
2023/07/02 11:51:48;;;;;;;8.13;2.80;;;20.60;99.90;;;;;;5073562;28;20036;-56
2023/07/02 11:54:14;;;;;;;11.60;2.80;;;20.60;99.90;;;;;;5074018;28;20051;-56
2023/07/02 11:56:41;;;;;;;9.18;2.45;;;20.50;99.90;;;;;;5073661;28;20111;-56
2023/07/02 11:59:08;;;;;;;9.68;2.78;;;20.20;99.90;;;;;;5074761;28;20048;-56
2023/07/02 12:01:33;;;;;;;9.00;2.42;;;20.30;99.90;;;;;;5075067;28;20412;-56
2023/07/02 12:03:59;;;;;;;11.10;2.60;;;20.20;99.90;;;;;;5055657;28;20054;-56
2023/07/02 12:06:25;;;;;;;12.18;2.58;;;20.50;99.90;;;;;;5073084;28;20039;-61
2023/07/02 12:08:50;;;;;;;10.30;2.78;;;20.30;99.90;;;;;;5073044;28;20041;-57
2023/07/02 12:11:16;;;;;;;8.18;2.88;;;20.10;99.90;;;;;;5074281;28;20049;-57
2023/07/02 12:13:42;;;;;;;8.20;2.70;;;19.80;99.90;;;;;;5073131;28;20048;-56
2023/07/02 12:16:08;;;;;;;7.95;2.97;;;19.30;99.90;;;;;;5054717;28;20067;-56
2023/07/02 12:18:34;;;;;;;9.57;3.05;;;19.40;99.90;;;;;;5072307;28;20040;-57
2023/07/02 12:21:00;;;;;;;7.68;2.70;;;19.10;99.90;;;;;;5056112;28;20169;-57
2023/07/02 12:23:26;;;;;;;11.02;2.70;;;19.10;99.90;;;;;;5052800;28;20229;-56
2023/07/02 12:25:51;;;;;;;10.85;2.80;;;19.20;99.90;;;;;;5071813;28;20478;-56
2023/07/02 12:28:17;;;;;;;12.02;3.30;;;18.60;99.90;;;;;;5073418;28;20047;-57
2023/07/02 12:30:43;;;;;;;9.10;3.00;;;18.50;99.90;;;;;;5073375;28;20028;-56
2023/07/02 12:33:09;;;;;;;13.38;3.60;;;18.30;99.90;;;;;;5053888;28;20425;-56
2023/07/02 12:35:34;;;;;;;13.68;3.53;;;18.30;99.90;;;;;;5072185;28;20237;-57